Time;durP1;ratioP1;P1;durP2;ratioP2;P2;SDS_P1;SDS_P2;PMS_P1;PMS_P2;Temp;Humidity;BMP_temperature;BMP_pressure;BME280_temperature;BME280_humidity;BME280_pressure;Samples;Min_cycle;Max_cycle;Signal;HPM_P1;HPM_P2
2022/03/20 00:02:03;;;;;;;10.63;6.30;;;4.90;99.90;;;;;;4878675;29;20063;-47
2022/03/20 00:04:29;;;;;;;11.50;6.53;;;4.90;99.90;;;;;;4885920;29;20159;-47
2022/03/20 00:06:55;;;;;;;9.32;6.80;;;4.90;99.90;;;;;;4885423;29;20326;-48
2022/03/20 00:09:21;;;;;;;12.05;7.60;;;4.80;99.90;;;;;;4886671;29;20048;-46
2022/03/20 00:11:47;;;;;;;8.52;6.20;;;4.80;99.90;;;;;;4867246;29;20067;-47
2022/03/20 00:14:13;;;;;;;9.07;5.82;;;4.80;99.90;;;;;;4885424;29;20052;-45
2022/03/20 00:16:39;;;;;;;9.32;6.53;;;4.80;99.90;;;;;;4885051;29;20056;-47
2022/03/20 00:19:05;;;;;;;10.48;6.53;;;4.80;99.90;;;;;;4885005;29;20473;-47
2022/03/20 00:21:32;;;;;;;10.85;6.88;;;4.80;99.90;;;;;;4884241;29;20123;-47
2022/03/20 00:23:58;;;;;;;9.10;6.03;;;4.90;99.90;;;;;;4883857;29;20052;-46
2022/03/20 00:26:23;;;;;;;10.43;6.03;;;4.80;99.90;;;;;;4884256;29;20056;-45
2022/03/20 00:28:49;;;;;;;11.02;6.95;;;4.80;99.90;;;;;;4885163;29;20555;-47
2022/03/20 00:31:15;;;;;;;12.60;8.02;;;4.80;99.90;;;;;;4884961;29;20052;-43
2022/03/20 00:33:41;;;;;;;12.23;6.78;;;4.80;99.90;;;;;;4880252;29;20369;-47
2022/03/20 00:36:06;;;;;;;13.65;6.75;;;4.80;99.90;;;;;;4885365;29;20056;-47
2022/03/20 00:38:32;;;;;;;13.55;6.80;;;4.80;99.90;;;;;;4890803;29;20274;-47
2022/03/20 00:40:58;;;;;;;11.23;6.60;;;4.70;99.90;;;;;;4886144;29;20053;-47
2022/03/20 00:43:23;;;;;;;9.07;5.95;;;4.70;99.90;;;;;;4885111;29;20052;-47
2022/03/20 00:45:49;;;;;;;9.60;5.90;;;4.60;99.90;;;;;;4885932;29;20123;-48
2022/03/20 00:48:15;;;;;;;9.65;6.50;;;4.60;99.90;;;;;;4886057;29;20099;-47
2022/03/20 00:50:41;;;;;;;9.73;6.68;;;4.50;99.90;;;;;;4887270;29;20059;-44
2022/03/20 00:53:07;;;;;;;12.00;6.60;;;4.50;99.90;;;;;;4888274;29;20139;-50
2022/03/20 00:55:33;;;;;;;11.77;6.72;;;4.50;99.90;;;;;;4886228;29;20056;-53
2022/03/20 00:57:58;;;;;;;12.13;7.03;;;4.40;99.90;;;;;;4885715;29;20583;-47
2022/03/20 01:00:24;;;;;;;9.55;6.63;;;4.40;99.90;;;;;;4884980;29;20056;-46
2022/03/20 01:02:50;;;;;;;16.80;7.07;;;4.30;99.90;;;;;;4885338;29;20051;-46
2022/03/20 01:05:16;;;;;;;11.50;6.47;;;4.30;99.90;;;;;;4885230;29;20053;-47
2022/03/20 01:07:45;;;;;;;9.77;6.72;;;4.30;99.90;;;;;;4885221;29;20048;-46
2022/03/20 01:10:12;;;;;;;13.23;7.47;;;4.20;99.90;;;;;;4884606;29;20048;-47
2022/03/20 01:12:39;;;;;;;9.80;6.53;;;4.20;99.90;;;;;;4885147;29;20131;-44
2022/03/20 01:15:08;;;;;;;10.82;7.13;;;4.20;99.90;;;;;;4884329;29;20115;-47
2022/03/20 01:17:35;;;;;;;13.98;7.43;;;4.20;99.90;;;;;;4884876;29;20404;-49
2022/03/20 01:20:01;;;;;;;10.25;7.25;;;4.20;99.90;;;;;;4885639;29;20069;-46
2022/03/20 01:22:28;;;;;;;13.98;7.05;;;4.20;99.90;;;;;;4884636;29;20170;-46
2022/03/20 01:24:53;;;;;;;8.80;6.93;;;4.10;99.90;;;;;;4884432;29;20595;-48
2022/03/20 01:27:19;;;;;;;13.98;7.72;;;4.10;99.90;;;;;;4885169;29;20161;-45
2022/03/20 01:29:45;;;;;;;10.38;7.47;;;4.10;99.90;;;;;;4884944;29;20497;-48
2022/03/20 01:32:10;;;;;;;14.35;7.15;;;4.10;99.90;;;;;;4867468;29;20052;-47
2022/03/20 01:34:37;;;;;;;11.18;6.72;;;4.10;99.90;;;;;;4869053;29;20092;-47
2022/03/20 01:37:03;;;;;;;12.70;7.25;;;4.10;99.90;;;;;;4889877;29;20370;-47
2022/03/20 01:39:29;;;;;;;10.88;7.70;;;4.00;99.90;;;;;;4884768;29;20116;-48
2022/03/20 01:41:55;;;;;;;9.60;7.82;;;4.00;99.90;;;;;;4885195;29;20624;-45
2022/03/20 01:44:29;;;;;;;9.73;7.75;;;4.00;99.90;;;;;;4885168;29;20057;-44
2022/03/20 01:46:55;;;;;;;12.02;7.13;;;4.00;99.90;;;;;;4884612;29;20447;-44
2022/03/20 01:49:21;;;;;;;12.95;8.13;;;3.90;99.90;;;;;;4885166;29;20500;-45
2022/03/20 01:54:31;;;;;;;10.10;7.78;;;3.90;99.90;;;;;;4885476;29;20068;-47
2022/03/20 01:56:57;;;;;;;15.93;8.05;;;3.80;99.90;;;;;;4884512;29;20535;-47
2022/03/20 01:59:23;;;;;;;11.45;8.13;;;3.80;99.90;;;;;;4885663;29;20060;-47
2022/03/20 02:01:49;;;;;;;11.75;7.80;;;3.70;99.90;;;;;;4872252;29;20182;-46
2022/03/20 02:04:15;;;;;;;13.98;8.30;;;3.70;99.90;;;;;;4892113;29;20048;-47
2022/03/20 02:06:43;;;;;;;12.07;7.47;;;3.70;99.90;;;;;;4889279;29;20057;-54
2022/03/20 02:09:09;;;;;;;12.93;8.93;;;3.70;99.90;;;;;;4888632;29;20107;-43
2022/03/20 02:11:35;;;;;;;10.80;8.32;;;3.70;99.90;;;;;;4888846;29;20053;-48
2022/03/20 02:14:01;;;;;;;11.93;8.27;;;3.60;99.90;;;;;;4889261;29;20412;-48
2022/03/20 02:16:27;;;;;;;12.35;9.05;;;3.60;99.90;;;;;;4886953;29;20057;-47
2022/03/20 02:18:55;;;;;;;16.05;8.82;;;3.60;99.90;;;;;;4869841;29;20414;-47
2022/03/20 02:21:39;;;;;;;15.38;9.45;;;3.50;99.90;;;;;;4893204;29;20048;-47
2022/03/20 02:24:34;;;;;;;14.50;8.60;;;3.50;99.90;;;;;;4883945;29;20052;-51
2022/03/20 02:27:07;;;;;;;13.23;9.32;;;3.50;99.90;;;;;;4886306;29;20445;-47
2022/03/20 02:29:33;;;;;;;18.02;9.98;;;3.40;99.90;;;;;;4888524;29;20068;-46
2022/03/20 02:32:00;;;;;;;15.73;9.50;;;3.40;99.90;;;;;;4883796;29;20053;-47
2022/03/20 02:34:30;;;;;;;14.02;9.40;;;3.40;99.90;;;;;;4888029;29;20564;-49
2022/03/20 02:36:58;;;;;;;15.02;9.32;;;3.40;99.90;;;;;;4885890;29;20567;-47
2022/03/20 02:39:25;;;;;;;16.13;10.25;;;3.40;99.90;;;;;;4888340;29;20143;-48
2022/03/20 02:41:51;;;;;;;14.45;9.30;;;3.30;99.90;;;;;;4887870;29;20144;-47
2022/03/20 02:44:18;;;;;;;12.68;9.90;;;3.30;99.90;;;;;;4888054;29;20053;-43
2022/03/20 02:46:44;;;;;;;14.18;9.65;;;3.30;99.90;;;;;;4869982;29;20500;-48
2022/03/20 02:49:11;;;;;;;14.70;9.80;;;3.30;99.90;;;;;;4888209;29;20092;-48
2022/03/20 02:51:37;;;;;;;16.05;10.65;;;3.30;99.90;;;;;;4884046;29;20073;-44
2022/03/20 02:54:04;;;;;;;14.23;9.95;;;3.30;99.90;;;;;;4887672;29;20049;-45
2022/03/20 02:56:29;;;;;;;14.93;10.45;;;3.30;99.90;;;;;;4889266;29;20056;-48
2022/03/20 02:58:55;;;;;;;17.30;9.73;;;3.30;99.90;;;;;;4871963;29;20400;-43
2022/03/20 03:01:21;;;;;;;14.73;10.38;;;3.30;99.90;;;;;;4885441;29;20040;-47
2022/03/20 03:03:47;;;;;;;14.35;10.45;;;3.30;99.90;;;;;;4888037;29;20159;-47
2022/03/20 03:06:13;;;;;;;16.25;10.75;;;3.30;99.90;;;;;;4887278;29;20060;-46
2022/03/20 03:11:23;;;;;;;18.13;11.02;;;3.30;99.90;;;;;;4887622;29;20052;-47
2022/03/20 03:13:49;;;;;;;14.73;10.43;;;3.30;99.90;;;;;;4871766;29;20476;-47
2022/03/20 03:16:16;;;;;;;18.25;11.00;;;3.30;99.90;;;;;;4889180;29;20084;-47
2022/03/20 03:18:46;;;;;;;17.10;11.00;;;3.20;99.90;;;;;;4887710;29;20044;-51
2022/03/20 03:21:16;;;;;;;17.33;11.02;;;3.20;99.90;;;;;;4869717;29;20192;-48
2022/03/20 03:23:43;;;;;;;16.92;10.70;;;3.20;99.90;;;;;;4886347;29;20564;-48
2022/03/20 03:26:10;;;;;;;18.05;11.95;;;3.20;99.90;;;;;;4886669;29;20107;-45
2022/03/20 03:28:36;;;;;;;19.40;10.13;;;3.20;99.90;;;;;;4887376;29;20052;-48
2022/03/20 03:31:05;;;;;;;19.58;11.40;;;3.20;99.90;;;;;;4853716;29;20099;-47
2022/03/20 03:33:31;;;;;;;18.50;11.93;;;3.20;99.90;;;;;;4885062;29;20500;-47
2022/03/20 03:35:57;;;;;;;16.63;11.13;;;3.20;99.90;;;;;;4886228;29;20094;-46
2022/03/20 03:38:34;;;;;;;18.85;11.55;;;3.20;99.90;;;;;;4891277;29;20131;-46
2022/03/20 03:41:00;;;;;;;16.80;11.52;;;3.10;99.90;;;;;;4883041;29;20958;-49
2022/03/20 03:43:26;;;;;;;15.82;11.05;;;3.10;99.90;;;;;;4886338;29;20052;-47
2022/03/20 03:45:53;;;;;;;16.98;11.93;;;3.10;99.90;;;;;;4886025;29;20155;-46
2022/03/20 03:48:19;;;;;;;16.88;11.93;;;3.10;99.90;;;;;;4886418;29;20059;-47
2022/03/20 03:50:47;;;;;;;15.90;11.43;;;3.10;99.90;;;;;;4869334;29;20449;-46
2022/03/20 03:53:14;;;;;;;18.58;11.80;;;3.10;99.90;;;;;;4884651;29;20064;-47
2022/03/20 03:55:43;;;;;;;19.63;11.70;;;3.10;99.90;;;;;;4885883;29;20052;-45
2022/03/20 03:58:09;;;;;;;17.70;12.55;;;3.10;99.90;;;;;;4890911;29;20175;-47
2022/03/20 04:00:35;;;;;;;19.77;12.40;;;3.10;99.90;;;;;;4886282;29;20409;-47
2022/03/20 04:03:01;;;;;;;18.38;12.43;;;3.10;99.90;;;;;;4889886;29;20059;-46
2022/03/20 04:05:28;;;;;;;20.40;12.48;;;3.00;99.90;;;;;;4884631;29;20052;-46
2022/03/20 04:07:54;;;;;;;19.98;12.57;;;3.00;99.90;;;;;;4886133;29;20071;-46
2022/03/20 04:10:21;;;;;;;19.15;13.68;;;3.00;99.90;;;;;;4886725;29;20184;-46
2022/03/20 04:12:51;;;;;;;21.23;13.65;;;3.00;99.90;;;;;;4885858;29;20116;-46
2022/03/20 04:15:21;;;;;;;24.00;13.73;;;2.90;99.90;;;;;;4886241;29;20527;-46
2022/03/20 04:17:47;;;;;;;17.75;13.25;;;2.90;99.90;;;;;;4885928;29;20056;-47
2022/03/20 04:20:13;;;;;;;18.25;13.07;;;2.90;99.90;;;;;;4886230;29;20052;-48
2022/03/20 04:23:42;;;;;;;17.17;12.52;;;2.90;99.90;;;;;;4886162;29;20049;-45
2022/03/20 04:25:26;;;;;;;18.65;12.30;;;2.80;99.90;;;;;;4889208;29;20068;-46
2022/03/20 04:27:56;;;;;;;20.02;13.10;;;2.90;99.90;;;;;;4886168;29;20049;-45
2022/03/20 04:30:26;;;;;;;17.83;12.73;;;2.80;99.90;;;;;;4886983;29;20056;-47
2022/03/20 04:32:53;;;;;;;17.75;13.18;;;2.80;99.90;;;;;;4885098;29;20429;-49
2022/03/20 04:35:21;;;;;;;18.02;12.23;;;2.70;99.90;;;;;;4885568;29;20481;-46
2022/03/20 04:37:48;;;;;;;18.35;13.43;;;2.70;99.90;;;;;;4890180;29;20155;-45
2022/03/20 04:40:17;;;;;;;23.88;13.82;;;2.70;99.90;;;;;;4885147;29;20059;-49
2022/03/20 04:42:43;;;;;;;25.13;14.23;;;2.70;99.90;;;;;;4884463;29;20044;-47
2022/03/20 04:45:10;;;;;;;22.42;14.32;;;2.70;99.90;;;;;;4884445;29;20051;-45
2022/03/20 04:58:36;;;;;;;20.73;13.70;;;2.60;99.90;;;;;;4890409;29;20049;-45
2022/03/20 05:01:02;;;;;;;21.85;14.98;;;2.50;99.90;;;;;;4887586;29;20485;-46
2022/03/20 05:03:32;;;;;;;20.75;13.98;;;2.50;99.90;;;;;;4884326;29;20087;-46
2022/03/20 05:05:58;;;;;;;20.30;13.82;;;2.50;99.90;;;;;;4885924;29;20052;-47
2022/03/20 05:08:24;;;;;;;21.92;15.05;;;2.50;99.90;;;;;;4892300;29;20499;-46
2022/03/20 05:13:34;;;;;;;21.33;14.55;;;2.50;99.90;;;;;;4884315;29;20099;-44
2022/03/20 05:16:00;;;;;;;21.02;14.32;;;2.50;99.90;;;;;;4883737;29;20045;-46
2022/03/20 05:18:25;;;;;;;20.80;15.57;;;2.40;99.90;;;;;;4885227;29;20092;-45
2022/03/20 05:20:52;;;;;;;21.65;14.20;;;2.40;99.90;;;;;;4885842;29;20507;-46
2022/03/20 05:23:19;;;;;;;22.98;15.05;;;2.30;99.90;;;;;;4885582;29;20487;-48
2022/03/20 05:25:45;;;;;;;22.42;15.20;;;2.30;99.90;;;;;;4884271;29;20136;-47
2022/03/20 05:28:11;;;;;;;24.60;15.73;;;2.30;99.90;;;;;;4885578;29;20477;-47
2022/03/20 05:30:37;;;;;;;23.80;16.10;;;2.30;99.90;;;;;;4885090;29;20425;-45
2022/03/20 05:33:03;;;;;;;20.20;15.13;;;2.30;99.90;;;;;;4885047;29;20527;-46
2022/03/20 05:35:29;;;;;;;22.98;16.15;;;2.30;99.90;;;;;;4885115;29;20571;-47
2022/03/20 05:37:55;;;;;;;21.63;15.32;;;2.30;99.90;;;;;;4888785;29;20056;-47
2022/03/20 05:40:20;;;;;;;22.27;15.60;;;2.30;99.90;;;;;;4888827;29;20544;-47
2022/03/20 05:42:47;;;;;;;21.63;15.38;;;2.30;99.90;;;;;;4888733;29;20052;-47
2022/03/20 05:45:14;;;;;;;23.27;15.27;;;2.30;99.90;;;;;;4888403;29;20048;-47
2022/03/20 05:47:40;;;;;;;21.00;15.40;;;2.30;99.90;;;;;;4889129;29;20052;-47
2022/03/20 05:50:08;;;;;;;22.58;16.33;;;2.20;99.90;;;;;;4892114;29;20061;-47
2022/03/20 05:52:35;;;;;;;20.02;15.48;;;2.20;99.90;;;;;;4890276;29;20075;-49
2022/03/20 05:55:02;;;;;;;19.15;15.43;;;2.20;99.90;;;;;;4888931;29;20504;-47
2022/03/20 06:00:24;;;;;;;20.42;14.82;;;2.30;99.90;;;;;;4881791;29;20291;-46
2022/03/20 06:02:50;;;;;;;21.40;15.27;;;2.30;99.90;;;;;;4884527;29;20493;-45
2022/03/20 06:05:19;;;;;;;20.27;15.80;;;2.30;99.90;;;;;;4888380;29;20104;-46
2022/03/20 06:07:47;;;;;;;22.75;15.60;;;2.30;99.90;;;;;;4887481;29;20474;-48
2022/03/20 06:10:14;;;;;;;22.02;15.68;;;2.30;99.90;;;;;;4890800;29;20048;-45
2022/03/20 06:12:41;;;;;;;24.10;17.08;;;2.40;99.90;;;;;;4888579;29;20048;-45
2022/03/20 06:15:08;;;;;;;22.45;15.43;;;2.60;99.90;;;;;;4874298;29;20082;-46
2022/03/20 06:17:47;;;;;;;23.52;15.57;;;2.70;99.90;;;;;;4871784;29;20061;-47
2022/03/20 06:20:15;;;;;;;23.98;15.80;;;2.90;99.90;;;;;;4887936;29;20135;-48
2022/03/20 06:22:43;;;;;;;24.40;15.57;;;3.10;99.90;;;;;;4887560;29;20498;-48
2022/03/20 06:25:09;;;;;;;23.17;16.33;;;3.30;99.90;;;;;;4887038;29;20107;-45
2022/03/20 06:27:43;;;;;;;21.45;15.73;;;3.50;99.90;;;;;;4887117;29;20144;-47
2022/03/20 06:30:15;;;;;;;23.48;15.88;;;3.70;99.90;;;;;;4887313;29;20099;-47
2022/03/20 06:32:42;;;;;;;23.33;16.05;;;3.80;99.90;;;;;;4887839;29;20059;-46
2022/03/20 06:35:09;;;;;;;26.70;16.25;;;4.00;99.90;;;;;;4870369;29;20555;-44
2022/03/20 06:37:36;;;;;;;23.27;16.30;;;4.20;99.90;;;;;;4870502;29;20095;-46
2022/03/20 06:40:03;;;;;;;25.80;16.08;;;4.30;99.90;;;;;;4880575;29;20293;-46
2022/03/20 06:42:30;;;;;;;22.20;16.65;;;4.50;99.90;;;;;;4888045;29;20060;-48
2022/03/20 06:44:59;;;;;;;26.17;17.63;;;4.70;99.90;;;;;;4888103;29;20072;-47
2022/03/20 06:47:26;;;;;;;23.52;16.60;;;4.70;99.90;;;;;;4888034;29;20056;-47
2022/03/20 06:49:55;;;;;;;23.83;16.77;;;4.80;99.90;;;;;;4886122;29;20048;-48
2022/03/20 06:52:23;;;;;;;23.05;16.33;;;4.90;99.90;;;;;;4887586;29;20060;-48
2022/03/20 06:54:50;;;;;;;22.20;17.00;;;4.60;99.90;;;;;;4886095;29;20121;-47
2022/03/20 06:57:19;;;;;;;24.05;16.70;;;4.40;99.90;;;;;;4894199;29;20056;-47
2022/03/20 06:59:46;;;;;;;21.92;16.80;;;4.30;99.90;;;;;;4876723;29;20057;-47
2022/03/20 07:02:12;;;;;;;24.65;18.33;;;4.20;99.90;;;;;;4888926;29;20052;-48
2022/03/20 07:04:37;;;;;;;19.63;15.75;;;4.20;99.90;;;;;;4888428;29;20053;-45
2022/03/20 07:07:04;;;;;;;21.73;17.38;;;4.20;99.90;;;;;;4887940;29;20546;-48
2022/03/20 07:09:29;;;;;;;23.33;17.35;;;4.00;99.90;;;;;;4869860;29;20559;-47
2022/03/20 07:11:55;;;;;;;22.15;17.10;;;3.90;99.90;;;;;;4886700;29;20575;-45
2022/03/20 07:14:21;;;;;;;20.17;17.15;;;3.90;99.90;;;;;;4886917;29;20048;-44
2022/03/20 07:16:47;;;;;;;22.83;17.25;;;4.00;99.90;;;;;;4886650;29;20469;-47
2022/03/20 07:19:12;;;;;;;22.00;17.00;;;4.10;99.90;;;;;;4887044;29;20052;-45
2022/03/20 07:21:50;;;;;;;22.50;17.05;;;4.20;99.90;;;;;;4886496;29;20084;-46
2022/03/20 07:24:16;;;;;;;24.90;17.08;;;4.30;99.90;;;;;;4885909;29;20061;-48
2022/03/20 07:29:32;;;;;;;23.15;17.50;;;4.40;99.90;;;;;;4886462;29;20419;-45
2022/03/20 07:32:01;;;;;;;23.88;17.83;;;4.50;99.90;;;;;;4883788;29;20052;-47
2022/03/20 07:34:27;;;;;;;22.27;17.45;;;4.50;99.90;;;;;;4865232;29;20116;-47
2022/03/20 07:36:52;;;;;;;23.52;18.23;;;4.70;99.90;;;;;;4886972;29;20048;-48
2022/03/20 07:39:18;;;;;;;26.55;17.88;;;4.80;99.90;;;;;;4886796;29;20055;-47
2022/03/20 07:41:44;;;;;;;22.30;16.70;;;4.80;99.90;;;;;;4865584;29;20421;-48
2022/03/20 07:44:10;;;;;;;20.63;16.65;;;4.80;99.90;;;;;;4886086;29;20087;-47
2022/03/20 07:46:38;;;;;;;24.20;19.08;;;4.80;99.90;;;;;;4886540;29;20060;-48
2022/03/20 07:49:04;;;;;;;25.08;18.90;;;4.90;99.90;;;;;;4885146;29;20473;-47
2022/03/20 07:51:35;;;;;;;22.42;17.15;;;4.90;99.90;;;;;;4885573;29;20052;-46
2022/03/20 07:54:01;;;;;;;23.55;18.25;;;4.90;99.90;;;;;;4869380;29;20219;-47
2022/03/20 07:56:30;;;;;;;24.02;17.33;;;4.90;99.90;;;;;;4885691;29;20056;-47
2022/03/20 07:58:56;;;;;;;22.38;16.88;;;5.00;99.90;;;;;;4887128;29;20056;-45
2022/03/20 08:01:22;;;;;;;23.10;18.70;;;5.00;99.90;;;;;;4885749;29;20090;-47
2022/03/20 08:03:48;;;;;;;25.08;19.25;;;5.00;99.90;;;;;;4869133;29;20095;-47
2022/03/20 08:06:15;;;;;;;23.02;18.85;;;5.10;99.90;;;;;;4884901;29;20512;-43
2022/03/20 08:08:42;;;;;;;25.35;19.40;;;5.10;99.90;;;;;;4884799;29;20776;-47
2022/03/20 08:11:09;;;;;;;21.98;18.30;;;5.20;99.90;;;;;;4889462;29;20056;-47
2022/03/20 08:13:35;;;;;;;24.50;19.40;;;5.20;99.90;;;;;;4886382;29;20575;-47
2022/03/20 08:16:01;;;;;;;26.88;18.27;;;5.40;99.90;;;;;;4885768;29;20127;-48
2022/03/20 08:18:27;;;;;;;28.17;20.02;;;5.50;99.90;;;;;;4885463;29;20052;-47
2022/03/20 08:20:54;;;;;;;23.38;18.88;;;5.60;99.90;;;;;;4885018;29;20107;-46
2022/03/20 08:23:20;;;;;;;25.55;19.20;;;5.70;99.90;;;;;;4885256;29;20055;-47
2022/03/20 08:25:45;;;;;;;26.80;18.38;;;5.80;99.90;;;;;;4883987;29;20044;-47
2022/03/20 08:28:12;;;;;;;24.63;19.00;;;5.80;99.90;;;;;;4885118;29;20049;-47
2022/03/20 08:30:40;;;;;;;26.30;19.77;;;5.80;99.90;;;;;;4885149;29;20048;-47
2022/03/20 08:33:06;;;;;;;26.65;19.65;;;5.80;99.90;;;;;;4885342;29;20153;-47
2022/03/20 08:35:32;;;;;;;23.67;18.45;;;5.90;99.90;;;;;;4885942;29;20483;-47
2022/03/20 08:37:57;;;;;;;27.30;19.73;;;6.00;99.90;;;;;;4869464;29;20060;-51
2022/03/20 08:40:24;;;;;;;27.00;19.73;;;6.00;99.90;;;;;;4868479;29;20063;-45
2022/03/20 08:42:53;;;;;;;28.02;19.65;;;6.10;99.90;;;;;;4868488;29;20062;-48
2022/03/20 08:45:21;;;;;;;27.80;19.25;;;6.00;99.90;;;;;;4867931;29;20059;-48
2022/03/20 08:47:47;;;;;;;25.02;18.80;;;5.90;99.90;;;;;;4884856;29;20064;-49
2022/03/20 08:50:15;;;;;;;26.73;18.92;;;6.00;99.90;;;;;;4884911;29;20091;-47
2022/03/20 08:52:45;;;;;;;23.52;19.25;;;6.00;99.90;;;;;;4884899;29;20060;-47
2022/03/20 08:55:11;;;;;;;24.80;19.35;;;6.10;99.90;;;;;;4883422;29;20219;-47
2022/03/20 08:57:54;;;;;;;26.73;20.90;;;6.10;99.90;;;;;;4884468;29;20516;-45
2022/03/20 09:00:26;;;;;;;25.42;19.70;;;6.20;99.90;;;;;;4884541;29;20052;-50
2022/03/20 09:02:53;;;;;;;23.88;18.55;;;6.40;99.90;;;;;;4881755;29;20065;-47
2022/03/20 09:05:20;;;;;;;26.13;20.58;;;6.50;99.90;;;;;;4867373;29;20056;-48
2022/03/20 09:07:53;;;;;;;27.02;20.50;;;6.60;99.90;;;;;;4886611;29;20560;-48
2022/03/20 09:10:19;;;;;;;23.35;18.85;;;6.50;99.90;;;;;;4885356;29;20104;-48
2022/03/20 09:12:45;;;;;;;25.65;19.27;;;6.40;99.90;;;;;;4870982;29;20063;-46
2022/03/20 09:15:15;;;;;;;28.67;20.73;;;6.40;99.90;;;;;;4889499;29;20428;-47
2022/03/20 09:20:34;;;;;;;25.70;20.33;;;6.60;99.90;;;;;;4889871;29;20121;-46
2022/03/20 09:23:00;;;;;;;26.60;20.80;;;6.70;99.90;;;;;;4889956;29;20057;-48
2022/03/20 09:25:32;;;;;;;27.83;21.15;;;6.90;99.90;;;;;;4890112;29;20045;-49
2022/03/20 09:27:59;;;;;;;25.25;20.05;;;7.10;99.90;;;;;;4890766;29;20535;-48
2022/03/20 09:30:25;;;;;;;27.65;21.83;;;7.10;99.90;;;;;;4888887;29;20049;-48
2022/03/20 09:32:51;;;;;;;26.33;21.70;;;7.20;99.90;;;;;;4891135;29;20053;-48
2022/03/20 09:35:17;;;;;;;26.75;19.50;;;7.30;99.90;;;;;;4890554;29;20092;-49
2022/03/20 09:37:43;;;;;;;27.25;21.52;;;7.30;99.90;;;;;;4880557;29;20120;-47
2022/03/20 09:40:10;;;;;;;23.90;19.80;;;7.40;99.90;;;;;;4871754;29;20056;-48
2022/03/20 09:42:37;;;;;;;29.35;22.20;;;7.50;99.90;;;;;;4888789;29;20052;-49
2022/03/20 09:45:04;;;;;;;30.40;19.90;;;7.40;99.90;;;;;;4889234;29;20053;-48
2022/03/20 09:47:41;;;;;;;31.65;21.50;;;7.60;99.90;;;;;;4888817;29;20056;-48
2022/03/20 09:50:09;;;;;;;27.00;20.52;;;7.60;99.90;;;;;;4888905;29;20056;-49
2022/03/20 09:52:36;;;;;;;27.83;20.95;;;7.70;99.90;;;;;;4880442;29;20044;-49
2022/03/20 09:55:08;;;;;;;27.63;20.55;;;7.70;99.90;;;;;;4884705;29;20069;-49
2022/03/20 09:57:33;;;;;;;26.52;21.08;;;7.70;99.90;;;;;;4872531;29;20422;-48
2022/03/20 10:00:04;;;;;;;31.40;22.15;;;7.60;99.90;;;;;;4884192;29;20127;-48
2022/03/20 10:02:30;;;;;;;30.65;22.23;;;7.60;99.90;;;;;;4888113;29;20052;-49
2022/03/20 10:04:59;;;;;;;31.05;21.75;;;7.80;99.90;;;;;;4887709;29;20052;-46
2022/03/20 10:07:31;;;;;;;30.17;21.20;;;7.90;99.90;;;;;;4889334;29;20128;-46
2022/03/20 10:10:13;;;;;;;28.77;20.67;;;8.00;99.90;;;;;;4882905;29;20589;-47
2022/03/20 10:12:49;;;;;;;27.27;21.25;;;8.00;99.90;;;;;;4883736;29;20041;-48
2022/03/20 10:15:36;;;;;;;28.42;22.25;;;8.00;99.90;;;;;;4875025;29;20083;-49
2022/03/20 10:18:11;;;;;;;29.10;23.15;;;8.00;99.90;;;;;;4859911;29;20047;-48
2022/03/20 10:20:42;;;;;;;29.05;21.85;;;8.00;99.90;;;;;;4883189;29;20056;-49
2022/03/20 10:23:27;;;;;;;25.33;21.77;;;8.10;99.90;;;;;;4883431;29;20064;-45
2022/03/20 10:25:53;;;;;;;30.90;22.75;;;8.20;99.80;;;;;;4884235;29;20053;-48
2022/03/20 10:28:18;;;;;;;33.58;22.77;;;8.20;99.10;;;;;;4885174;29;20047;-48
2022/03/20 10:31:06;;;;;;;29.90;23.30;;;8.20;99.10;;;;;;4888212;29;20053;-48
2022/03/20 10:33:33;;;;;;;42.10;25.35;;;8.40;99.60;;;;;;4863637;29;20072;-47
2022/03/20 10:36:16;;;;;;;34.60;24.75;;;8.40;98.80;;;;;;4881499;29;20047;-46
2022/03/20 10:38:45;;;;;;;29.60;23.90;;;8.50;98.60;;;;;;4884120;29;20053;-48
2022/03/20 10:41:21;;;;;;;52.90;25.20;;;8.50;99.20;;;;;;4884422;29;20052;-49
2022/03/20 10:43:48;;;;;;;29.55;22.55;;;8.60;98.30;;;;;;4888728;29;20060;-53
2022/03/20 10:46:23;;;;;;;45.10;23.67;;;8.60;98.40;;;;;;4888284;29;20552;-52
2022/03/20 10:48:52;;;;;;;29.40;22.50;;;8.60;98.00;;;;;;4888623;29;20128;-49
2022/03/20 10:51:38;;;;;;;31.88;23.40;;;8.60;98.50;;;;;;4881836;29;20049;-48
2022/03/20 10:54:15;;;;;;;32.72;23.80;;;8.60;97.50;;;;;;4878911;29;20060;-49
2022/03/20 10:56:58;;;;;;;32.40;24.90;;;8.60;97.40;;;;;;4889197;29;20049;-48
2022/03/20 10:59:29;;;;;;;34.13;25.55;;;8.80;97.70;;;;;;4884820;29;20044;-48
2022/03/20 11:01:55;;;;;;;30.55;24.33;;;8.80;97.30;;;;;;4882813;29;20055;-49
2022/03/20 11:04:23;;;;;;;36.50;26.23;;;8.90;98.00;;;;;;4879847;29;20139;-47
2022/03/20 11:06:54;;;;;;;28.88;23.73;;;9.00;97.40;;;;;;4884881;29;20048;-48
2022/03/20 11:09:20;;;;;;;31.30;24.02;;;9.00;97.40;;;;;;4870562;29;20063;-51
2022/03/20 11:11:53;;;;;;;30.23;23.95;;;9.00;97.10;;;;;;4881083;29;20066;-50
2022/03/20 11:14:21;;;;;;;31.35;23.25;;;9.00;97.30;;;;;;4889306;29;20148;-46
2022/03/20 11:16:53;;;;;;;29.77;24.38;;;9.10;97.60;;;;;;4886825;29;20056;-45
2022/03/20 11:19:25;;;;;;;35.30;24.33;;;9.10;96.90;;;;;;4888481;29;20060;-48
2022/03/20 11:21:54;;;;;;;31.65;24.30;;;9.10;97.30;;;;;;4891408;29;20052;-48
2022/03/20 11:24:20;;;;;;;26.30;23.17;;;9.20;97.40;;;;;;4887732;29;20112;-48
2022/03/20 11:26:50;;;;;;;31.85;24.30;;;9.30;96.50;;;;;;4879622;29;20445;-50
2022/03/20 11:29:19;;;;;;;31.77;25.05;;;9.40;96.40;;;;;;4888375;29;20083;-49
2022/03/20 11:31:48;;;;;;;36.67;24.70;;;9.40;96.40;;;;;;4895930;29;20051;-50
2022/03/20 11:34:15;;;;;;;34.45;26.05;;;9.50;96.00;;;;;;4895116;29;20056;-50
2022/03/20 11:37:06;;;;;;;34.63;24.73;;;9.50;96.10;;;;;;4889232;29;20055;-52
2022/03/20 11:39:33;;;;;;;31.15;24.38;;;9.60;96.00;;;;;;4885668;29;20055;-48
2022/03/20 11:42:22;;;;;;;33.97;26.08;;;9.60;96.30;;;;;;4873835;29;20606;-47
2022/03/20 11:45:00;;;;;;;49.15;25.33;;;9.70;96.10;;;;;;4896363;29;20419;-48
2022/03/20 11:47:29;;;;;;;28.73;24.70;;;9.70;95.70;;;;;;4897926;29;20444;-48
2022/03/20 11:50:21;;;;;;;30.70;25.15;;;9.70;95.90;;;;;;4893539;29;20052;-47
2022/03/20 11:52:58;;;;;;;30.88;25.75;;;9.90;96.60;;;;;;4886335;29;20544;-48
2022/03/20 11:55:26;;;;;;;31.70;26.70;;;10.00;95.90;;;;;;4896048;29;20131;-50
2022/03/20 11:57:53;;;;;;;33.08;26.30;;;10.10;95.60;;;;;;4894641;29;20108;-48
2022/03/20 12:00:28;;;;;;;52.17;27.77;;;10.20;94.70;;;;;;4891675;29;20060;-49
2022/03/20 12:03:09;;;;;;;32.03;25.90;;;10.10;94.70;;;;;;4887945;29;20059;-49
2022/03/20 12:05:50;;;;;;;29.98;26.13;;;10.20;94.60;;;;;;4891517;29;20159;-51
2022/03/20 12:08:42;;;;;;;33.15;26.20;;;10.20;95.30;;;;;;4873859;29;20053;-45
2022/03/20 12:11:22;;;;;;;40.25;26.23;;;10.40;95.50;;;;;;4887055;29;20056;-48
2022/03/20 12:14:05;;;;;;;34.13;26.30;;;10.40;94.80;;;;;;4896091;29;20551;-51
2022/03/20 12:16:50;;;;;;;34.77;26.43;;;10.40;94.80;;;;;;4893773;29;20063;-49
2022/03/20 12:19:21;;;;;;;31.48;26.05;;;10.30;94.30;;;;;;4893329;29;20132;-50
2022/03/20 12:21:59;;;;;;;37.60;27.35;;;10.30;94.40;;;;;;4861415;29;20135;-49
2022/03/20 12:24:55;;;;;;;30.58;25.25;;;10.30;93.90;;;;;;4886193;29;20598;-48
2022/03/20 12:27:24;;;;;;;34.42;26.17;;;10.40;95.00;;;;;;4893212;29;20566;-48
2022/03/20 12:30:04;;;;;;;32.33;27.02;;;10.30;94.50;;;;;;4893744;29;20063;-49
2022/03/20 12:32:49;;;;;;;34.33;26.65;;;10.40;94.50;;;;;;4890620;29;20387;-48
2022/03/20 12:35:25;;;;;;;37.13;25.70;;;10.40;94.30;;;;;;4893381;29;20512;-50
2022/03/20 12:37:53;;;;;;;34.63;26.80;;;10.50;94.40;;;;;;4893857;29;20056;-53
2022/03/20 12:40:32;;;;;;;31.05;26.20;;;10.50;94.00;;;;;;4891319;29;20119;-53
2022/03/20 12:42:59;;;;;;;29.73;25.50;;;10.60;93.60;;;;;;4882284;29;20057;-49
2022/03/20 12:45:27;;;;;;;34.17;27.50;;;10.80;94.50;;;;;;4882601;29;20044;-52
2022/03/20 12:48:05;;;;;;;28.67;25.27;;;11.00;95.80;;;;;;4868707;29;20112;-48
2022/03/20 12:50:39;;;;;;;30.92;26.60;;;11.10;94.30;;;;;;4889548;29;20159;-49
2022/03/20 12:53:09;;;;;;;35.65;26.02;;;11.00;93.90;;;;;;4882765;29;21823;-49
2022/03/20 12:55:37;;;;;;;32.10;27.30;;;11.00;93.60;;;;;;4881023;29;20093;-48
2022/03/20 12:58:03;;;;;;;33.88;27.17;;;10.90;93.50;;;;;;4860848;29;20057;-49
2022/03/20 13:00:32;;;;;;;34.30;27.70;;;10.80;94.50;;;;;;4881680;29;20052;-48
2022/03/20 13:03:10;;;;;;;35.42;26.45;;;10.80;94.10;;;;;;4888679;29;20079;-48
2022/03/20 13:05:45;;;;;;;33.65;26.58;;;10.90;93.40;;;;;;4891754;29;20128;-50
2022/03/20 13:08:24;;;;;;;35.00;27.48;;;10.90;93.60;;;;;;4889856;29;20057;-49
2022/03/20 13:10:52;;;;;;;35.92;28.50;;;10.90;92.90;;;;;;4895674;29;20764;-47
2022/03/20 13:13:20;;;;;;;38.15;28.13;;;10.70;93.00;;;;;;4893885;29;20049;-50
2022/03/20 13:15:48;;;;;;;33.13;27.15;;;10.60;93.10;;;;;;4890389;29;20056;-49